sensor_id;sensor_type;location;lat;lon;timestamp;P1;durP1;ratioP1;P2;durP2;ratioP2
32200;SDS011;18701;45.588;5.288;2023-05-02T00:01:48;3.28;;;1.42;;
32200;SDS011;18701;45.588;5.288;2023-05-02T00:04:14;1.50;;;1.17;;
32200;SDS011;18701;45.588;5.288;2023-05-02T00:06:40;2.83;;;1.42;;
32200;SDS011;18701;45.588;5.288;2023-05-02T00:09:06;6.28;;;1.27;;
32200;SDS011;18701;45.588;5.288;2023-05-02T00:11:32;1.90;;;1.50;;
32200;SDS011;18701;45.588;5.288;2023-05-02T00:13:58;2.35;;;1.70;;
32200;SDS011;18701;45.588;5.288;2023-05-02T00:16:24;3.03;;;1.70;;
32200;SDS011;18701;45.588;5.288;2023-05-02T00:18:49;1.77;;;1.17;;
32200;SDS011;18701;45.588;5.288;2023-05-02T00:21:15;2.22;;;1.67;;
32200;SDS011;18701;45.588;5.288;2023-05-02T00:23:41;2.78;;;1.30;;
32200;SDS011;18701;45.588;5.288;2023-05-02T00:26:09;2.85;;;1.33;;
32200;SDS011;18701;45.588;5.288;2023-05-02T00:28:35;2.20;;;1.17;;
32200;SDS011;18701;45.588;5.288;2023-05-02T00:31:00;2.03;;;1.40;;
32200;SDS011;18701;45.588;5.288;2023-05-02T00:33:26;2.80;;;1.70;;
32200;SDS011;18701;45.588;5.288;2023-05-02T00:35:52;3.92;;;1.25;;
32200;SDS011;18701;45.588;5.288;2023-05-02T00:38:17;1.73;;;1.20;;
32200;SDS011;18701;45.588;5.288;2023-05-02T00:40:44;2.22;;;0.90;;
32200;SDS011;18701;45.588;5.288;2023-05-02T00:43:10;2.42;;;1.00;;
32200;SDS011;18701;45.588;5.288;2023-05-02T00:45:37;4.97;;;1.55;;
32200;SDS011;18701;45.588;5.288;2023-05-02T00:48:05;2.65;;;1.25;;
32200;SDS011;18701;45.588;5.288;2023-05-02T00:50:33;2.90;;;1.45;;
32200;SDS011;18701;45.588;5.288;2023-05-02T00:53:02;3.92;;;1.27;;
32200;SDS011;18701;45.588;5.288;2023-05-02T00:55:29;1.52;;;0.98;;
32200;SDS011;18701;45.588;5.288;2023-05-02T00:57:56;2.03;;;1.10;;
32200;SDS011;18701;45.588;5.288;2023-05-02T01:00:23;3.63;;;1.30;;
32200;SDS011;18701;45.588;5.288;2023-05-02T01:03:02;1.30;;;1.10;;
32200;SDS011;18701;45.588;5.288;2023-05-02T01:05:58;1.88;;;0.90;;
32200;SDS011;18701;45.588;5.288;2023-05-02T01:08:49;2.08;;;1.20;;
32200;SDS011;18701;45.588;5.288;2023-05-02T01:11:28;2.50;;;1.00;;
32200;SDS011;18701;45.588;5.288;2023-05-02T01:14:04;2.35;;;1.23;;
32200;SDS011;18701;45.588;5.288;2023-05-02T01:16:32;1.73;;;1.30;;
32200;SDS011;18701;45.588;5.288;2023-05-02T01:19:04;2.00;;;0.90;;
32200;SDS011;18701;45.588;5.288;2023-05-02T01:21:33;1.40;;;1.10;;
32200;SDS011;18701;45.588;5.288;2023-05-02T01:26:44;2.63;;;1.50;;
32200;SDS011;18701;45.588;5.288;2023-05-02T01:29:35;1.50;;;1.05;;
32200;SDS011;18701;45.588;5.288;2023-05-02T01:32:03;1.45;;;0.95;;
32200;SDS011;18701;45.588;5.288;2023-05-02T01:34:30;1.48;;;1.05;;
32200;SDS011;18701;45.588;5.288;2023-05-02T01:36:57;2.00;;;1.48;;
32200;SDS011;18701;45.588;5.288;2023-05-02T01:39:25;1.90;;;1.05;;
32200;SDS011;18701;45.588;5.288;2023-05-02T01:41:52;1.85;;;1.00;;
32200;SDS011;18701;45.588;5.288;2023-05-02T01:44:23;2.13;;;1.30;;
32200;SDS011;18701;45.588;5.288;2023-05-02T01:46:50;2.47;;;1.33;;
32200;SDS011;18701;45.588;5.288;2023-05-02T01:49:18;1.88;;;1.33;;
32200;SDS011;18701;45.588;5.288;2023-05-02T01:51:47;7.90;;;1.77;;
32200;SDS011;18701;45.588;5.288;2023-05-02T01:54:15;1.50;;;1.20;;
32200;SDS011;18701;45.588;5.288;2023-05-02T01:56:41;2.38;;;1.33;;
32200;SDS011;18701;45.588;5.288;2023-05-02T01:59:13;2.83;;;1.42;;
32200;SDS011;18701;45.588;5.288;2023-05-02T02:01:42;2.85;;;1.30;;
32200;SDS011;18701;45.588;5.288;2023-05-02T02:04:09;1.92;;;1.45;;
32200;SDS011;18701;45.588;5.288;2023-05-02T02:06:36;2.67;;;1.00;;
32200;SDS011;18701;45.588;5.288;2023-05-02T02:09:03;7.68;;;1.42;;
32200;SDS011;18701;45.588;5.288;2023-05-02T02:12:15;2.03;;;1.38;;
32200;SDS011;18701;45.588;5.288;2023-05-02T02:14:26;2.30;;;1.73;;
32200;SDS011;18701;45.588;5.288;2023-05-02T02:17:00;2.72;;;1.60;;
32200;SDS011;18701;45.588;5.288;2023-05-02T02:19:29;3.08;;;1.15;;
32200;SDS011;18701;45.588;5.288;2023-05-02T02:21:56;1.60;;;1.48;;
32200;SDS011;18701;45.588;5.288;2023-05-02T02:24:22;3.88;;;1.95;;
32200;SDS011;18701;45.588;5.288;2023-05-02T02:26:50;2.45;;;1.40;;
32200;SDS011;18701;45.588;5.288;2023-05-02T02:29:16;4.07;;;1.85;;
32200;SDS011;18701;45.588;5.288;2023-05-02T02:31:41;4.47;;;1.75;;
32200;SDS011;18701;45.588;5.288;2023-05-02T02:34:07;3.53;;;1.52;;
32200;SDS011;18701;45.588;5.288;2023-05-02T02:36:34;6.20;;;1.80;;
32200;SDS011;18701;45.588;5.288;2023-05-02T02:39:16;1.95;;;1.30;;
32200;SDS011;18701;45.588;5.288;2023-05-02T02:42:10;2.20;;;1.92;;
32200;SDS011;18701;45.588;5.288;2023-05-02T02:44:48;2.10;;;1.63;;
32200;SDS011;18701;45.588;5.288;2023-05-02T02:47:28;4.05;;;1.60;;
32200;SDS011;18701;45.588;5.288;2023-05-02T02:50:10;2.55;;;1.73;;
32200;SDS011;18701;45.588;5.288;2023-05-02T02:52:47;3.00;;;1.58;;
32200;SDS011;18701;45.588;5.288;2023-05-02T02:59:14;5.35;;;2.00;;
32200;SDS011;18701;45.588;5.288;2023-05-02T03:01:19;3.63;;;2.03;;
32200;SDS011;18701;45.588;5.288;2023-05-02T03:03:48;4.32;;;2.30;;
32200;SDS011;18701;45.588;5.288;2023-05-02T03:06:18;3.65;;;1.70;;
32200;SDS011;18701;45.588;5.288;2023-05-02T03:08:45;3.83;;;1.70;;
32200;SDS011;18701;45.588;5.288;2023-05-02T03:11:10;2.72;;;2.08;;
32200;SDS011;18701;45.588;5.288;2023-05-02T03:13:36;2.10;;;1.73;;
32200;SDS011;18701;45.588;5.288;2023-05-02T03:16:17;9.15;;;2.38;;
32200;SDS011;18701;45.588;5.288;2023-05-02T03:18:53;3.38;;;2.10;;
32200;SDS011;18701;45.588;5.288;2023-05-02T03:21:19;3.58;;;2.20;;
32200;SDS011;18701;45.588;5.288;2023-05-02T03:23:45;7.60;;;2.30;;
32200;SDS011;18701;45.588;5.288;2023-05-02T03:26:10;5.88;;;2.65;;
32200;SDS011;18701;45.588;5.288;2023-05-02T03:28:36;7.85;;;2.60;;
32200;SDS011;18701;45.588;5.288;2023-05-02T03:31:02;4.00;;;2.58;;
32200;SDS011;18701;45.588;5.288;2023-05-02T03:33:27;4.57;;;2.42;;
32200;SDS011;18701;45.588;5.288;2023-05-02T03:35:53;3.83;;;2.47;;
32200;SDS011;18701;45.588;5.288;2023-05-02T03:38:18;3.80;;;2.33;;
32200;SDS011;18701;45.588;5.288;2023-05-02T03:40:44;3.85;;;2.67;;
32200;SDS011;18701;45.588;5.288;2023-05-02T03:43:10;5.30;;;2.53;;
32200;SDS011;18701;45.588;5.288;2023-05-02T03:45:35;6.03;;;2.67;;
32200;SDS011;18701;45.588;5.288;2023-05-02T03:48:01;5.10;;;2.53;;
32200;SDS011;18701;45.588;5.288;2023-05-02T03:50:27;3.92;;;2.15;;
32200;SDS011;18701;45.588;5.288;2023-05-02T03:52:52;8.10;;;2.85;;
32200;SDS011;18701;45.588;5.288;2023-05-02T03:55:18;5.82;;;2.67;;
32200;SDS011;18701;45.588;5.288;2023-05-02T03:57:45;4.75;;;2.97;;
32200;SDS011;18701;45.588;5.288;2023-05-02T04:00:11;4.20;;;3.03;;
32200;SDS011;18701;45.588;5.288;2023-05-02T04:02:37;4.70;;;3.05;;
32200;SDS011;18701;45.588;5.288;2023-05-02T04:05:02;4.25;;;2.90;;
32200;SDS011;18701;45.588;5.288;2023-05-02T04:07:28;5.30;;;3.35;;
32200;SDS011;18701;45.588;5.288;2023-05-02T04:09:54;9.40;;;3.65;;
32200;SDS011;18701;45.588;5.288;2023-05-02T04:12:19;7.40;;;3.70;;
32200;SDS011;18701;45.588;5.288;2023-05-02T04:14:45;3.78;;;2.88;;
32200;SDS011;18701;45.588;5.288;2023-05-02T04:17:11;6.32;;;3.50;;
32200;SDS011;18701;45.588;5.288;2023-05-02T04:19:37;6.10;;;3.60;;
32200;SDS011;18701;45.588;5.288;2023-05-02T04:22:03;7.15;;;3.58;;
32200;SDS011;18701;45.588;5.288;2023-05-02T04:24:28;5.88;;;3.60;;
32200;SDS011;18701;45.588;5.288;2023-05-02T04:26:54;5.85;;;2.88;;
32200;SDS011;18701;45.588;5.288;2023-05-02T04:29:20;6.95;;;3.90;;
32200;SDS011;18701;45.588;5.288;2023-05-02T04:31:45;5.25;;;3.78;;
32200;SDS011;18701;45.588;5.288;2023-05-02T04:34:11;6.90;;;4.05;;
32200;SDS011;18701;45.588;5.288;2023-05-02T04:36:36;5.03;;;3.72;;
32200;SDS011;18701;45.588;5.288;2023-05-02T04:39:02;7.15;;;4.07;;
32200;SDS011;18701;45.588;5.288;2023-05-02T04:41:31;6.00;;;3.63;;
32200;SDS011;18701;45.588;5.288;2023-05-02T04:43:57;12.57;;;4.07;;
32200;SDS011;18701;45.588;5.288;2023-05-02T04:46:22;12.85;;;4.40;;
32200;SDS011;18701;45.588;5.288;2023-05-02T04:48:48;6.80;;;3.63;;
32200;SDS011;18701;45.588;5.288;2023-05-02T04:51:14;5.65;;;3.97;;
32200;SDS011;18701;45.588;5.288;2023-05-02T04:53:40;5.82;;;4.00;;
32200;SDS011;18701;45.588;5.288;2023-05-02T04:56:05;6.25;;;3.78;;
32200;SDS011;18701;45.588;5.288;2023-05-02T04:58:31;6.43;;;4.20;;
32200;SDS011;18701;45.588;5.288;2023-05-02T05:00:59;6.97;;;3.90;;
32200;SDS011;18701;45.588;5.288;2023-05-02T05:03:25;10.10;;;4.07;;
32200;SDS011;18701;45.588;5.288;2023-05-02T05:05:53;6.63;;;4.28;;
32200;SDS011;18701;45.588;5.288;2023-05-02T05:08:19;4.18;;;3.70;;
32200;SDS011;18701;45.588;5.288;2023-05-02T05:10:45;6.90;;;4.05;;
32200;SDS011;18701;45.588;5.288;2023-05-02T05:13:11;6.70;;;4.13;;
32200;SDS011;18701;45.588;5.288;2023-05-02T05:15:37;5.25;;;3.90;;
32200;SDS011;18701;45.588;5.288;2023-05-02T05:18:04;6.50;;;4.60;;
32200;SDS011;18701;45.588;5.288;2023-05-02T05:20:29;7.78;;;5.05;;
32200;SDS011;18701;45.588;5.288;2023-05-02T05:22:58;8.25;;;4.50;;
32200;SDS011;18701;45.588;5.288;2023-05-02T05:25:27;7.30;;;4.82;;
32200;SDS011;18701;45.588;5.288;2023-05-02T05:27:52;5.78;;;4.50;;
32200;SDS011;18701;45.588;5.288;2023-05-02T05:30:20;8.30;;;4.88;;
32200;SDS011;18701;45.588;5.288;2023-05-02T05:32:45;5.05;;;4.22;;
32200;SDS011;18701;45.588;5.288;2023-05-02T05:35:11;6.97;;;4.70;;
32200;SDS011;18701;45.588;5.288;2023-05-02T05:37:37;8.00;;;4.50;;
32200;SDS011;18701;45.588;5.288;2023-05-02T05:40:05;6.00;;;4.70;;
32200;SDS011;18701;45.588;5.288;2023-05-02T05:42:31;5.18;;;4.38;;
32200;SDS011;18701;45.588;5.288;2023-05-02T05:44:57;6.13;;;4.82;;
32200;SDS011;18701;45.588;5.288;2023-05-02T05:47:23;10.73;;;5.13;;
32200;SDS011;18701;45.588;5.288;2023-05-02T05:49:54;8.45;;;4.82;;
32200;SDS011;18701;45.588;5.288;2023-05-02T05:52:20;7.82;;;5.32;;
32200;SDS011;18701;45.588;5.288;2023-05-02T05:54:46;7.35;;;5.15;;
32200;SDS011;18701;45.588;5.288;2023-05-02T05:57:12;6.00;;;4.88;;
32200;SDS011;18701;45.588;5.288;2023-05-02T05:59:38;9.63;;;4.78;;
32200;SDS011;18701;45.588;5.288;2023-05-02T06:02:03;7.63;;;4.35;;
32200;SDS011;18701;45.588;5.288;2023-05-02T06:04:29;7.78;;;4.60;;
32200;SDS011;18701;45.588;5.288;2023-05-02T06:06:58;10.77;;;4.47;;
32200;SDS011;18701;45.588;5.288;2023-05-02T06:09:24;8.05;;;4.75;;
32200;SDS011;18701;45.588;5.288;2023-05-02T06:11:50;7.78;;;4.78;;
32200;SDS011;18701;45.588;5.288;2023-05-02T06:14:15;7.70;;;4.18;;
32200;SDS011;18701;45.588;5.288;2023-05-02T06:16:41;9.43;;;5.05;;
32200;SDS011;18701;45.588;5.288;2023-05-02T06:19:06;8.18;;;4.78;;
32200;SDS011;18701;45.588;5.288;2023-05-02T06:21:34;6.38;;;5.00;;
32200;SDS011;18701;45.588;5.288;2023-05-02T06:24:01;7.50;;;5.50;;
32200;SDS011;18701;45.588;5.288;2023-05-02T06:26:26;8.15;;;5.32;;
32200;SDS011;18701;45.588;5.288;2023-05-02T06:28:53;11.00;;;5.57;;
32200;SDS011;18701;45.588;5.288;2023-05-02T06:31:19;7.10;;;5.60;;
32200;SDS011;18701;45.588;5.288;2023-05-02T06:33:45;9.93;;;5.25;;
32200;SDS011;18701;45.588;5.288;2023-05-02T06:36:10;7.28;;;5.03;;
32200;SDS011;18701;45.588;5.288;2023-05-02T06:38:36;7.35;;;5.88;;
32200;SDS011;18701;45.588;5.288;2023-05-02T06:41:01;10.30;;;5.45;;
32200;SDS011;18701;45.588;5.288;2023-05-02T06:43:27;8.30;;;5.80;;
32200;SDS011;18701;45.588;5.288;2023-05-02T06:45:53;10.10;;;5.70;;
32200;SDS011;18701;45.588;5.288;2023-05-02T06:48:22;10.90;;;6.03;;
32200;SDS011;18701;45.588;5.288;2023-05-02T06:50:50;12.10;;;6.20;;
32200;SDS011;18701;45.588;5.288;2023-05-02T06:53:17;10.52;;;6.70;;
32200;SDS011;18701;45.588;5.288;2023-05-02T06:55:43;9.63;;;6.68;;
32200;SDS011;18701;45.588;5.288;2023-05-02T06:58:09;11.48;;;6.97;;
32200;SDS011;18701;45.588;5.288;2023-05-02T07:00:35;10.05;;;6.00;;
32200;SDS011;18701;45.588;5.288;2023-05-02T07:03:01;9.75;;;6.10;;
32200;SDS011;18701;45.588;5.288;2023-05-02T07:05:27;8.68;;;6.15;;
32200;SDS011;18701;45.588;5.288;2023-05-02T07:07:53;9.20;;;5.60;;
32200;SDS011;18701;45.588;5.288;2023-05-02T07:10:19;9.88;;;5.80;;
32200;SDS011;18701;45.588;5.288;2023-05-02T07:12:45;7.68;;;5.85;;
32200;SDS011;18701;45.588;5.288;2023-05-02T07:15:10;10.57;;;6.30;;
32200;SDS011;18701;45.588;5.288;2023-05-02T07:17:38;13.82;;;6.63;;
32200;SDS011;18701;45.588;5.288;2023-05-02T07:20:04;11.75;;;7.00;;
32200;SDS011;18701;45.588;5.288;2023-05-02T07:22:30;13.30;;;6.18;;
32200;SDS011;18701;45.588;5.288;2023-05-02T07:25:00;11.02;;;6.93;;
32200;SDS011;18701;45.588;5.288;2023-05-02T07:27:26;11.93;;;6.60;;
32200;SDS011;18701;45.588;5.288;2023-05-02T07:29:52;8.70;;;6.50;;
32200;SDS011;18701;45.588;5.288;2023-05-02T07:32:18;12.52;;;7.55;;
32200;SDS011;18701;45.588;5.288;2023-05-02T07:34:45;11.07;;;6.93;;
32200;SDS011;18701;45.588;5.288;2023-05-02T07:37:11;15.15;;;6.90;;
32200;SDS011;18701;45.588;5.288;2023-05-02T07:39:37;16.70;;;7.20;;
32200;SDS011;18701;45.588;5.288;2023-05-02T07:42:03;9.88;;;6.93;;
32200;SDS011;18701;45.588;5.288;2023-05-02T07:44:28;10.02;;;6.35;;
32200;SDS011;18701;45.588;5.288;2023-05-02T07:46:54;8.95;;;6.60;;
32200;SDS011;18701;45.588;5.288;2023-05-02T07:49:20;9.65;;;6.22;;
32200;SDS011;18701;45.588;5.288;2023-05-02T07:51:45;8.10;;;6.43;;
32200;SDS011;18701;45.588;5.288;2023-05-02T07:54:29;12.48;;;6.18;;
32200;SDS011;18701;45.588;5.288;2023-05-02T07:56:55;9.07;;;5.75;;
32200;SDS011;18701;45.588;5.288;2023-05-02T07:59:22;8.02;;;6.03;;
32200;SDS011;18701;45.588;5.288;2023-05-02T08:01:48;15.80;;;7.75;;
32200;SDS011;18701;45.588;5.288;2023-05-02T08:04:13;8.75;;;6.00;;
32200;SDS011;18701;45.588;5.288;2023-05-02T08:06:39;9.70;;;6.18;;
32200;SDS011;18701;45.588;5.288;2023-05-02T08:09:06;9.38;;;5.97;;
32200;SDS011;18701;45.588;5.288;2023-05-02T08:11:33;10.70;;;6.20;;
32200;SDS011;18701;45.588;5.288;2023-05-02T08:13:58;9.43;;;5.93;;
32200;SDS011;18701;45.588;5.288;2023-05-02T08:16:24;10.57;;;6.32;;
32200;SDS011;18701;45.588;5.288;2023-05-02T08:18:50;6.97;;;5.80;;
32200;SDS011;18701;45.588;5.288;2023-05-02T08:21:15;6.43;;;5.38;;
32200;SDS011;18701;45.588;5.288;2023-05-02T08:23:41;9.82;;;5.72;;
32200;SDS011;18701;45.588;5.288;2023-05-02T08:26:07;10.15;;;6.28;;
32200;SDS011;18701;45.588;5.288;2023-05-02T08:28:32;8.95;;;6.00;;
32200;SDS011;18701;45.588;5.288;2023-05-02T08:30:58;13.52;;;5.93;;
32200;SDS011;18701;45.588;5.288;2023-05-02T08:33:23;7.88;;;5.50;;
32200;SDS011;18701;45.588;5.288;2023-05-02T08:35:50;9.48;;;5.97;;
32200;SDS011;18701;45.588;5.288;2023-05-02T08:38:16;9.55;;;5.88;;
32200;SDS011;18701;45.588;5.288;2023-05-02T08:40:41;8.65;;;5.68;;
32200;SDS011;18701;45.588;5.288;2023-05-02T08:43:07;11.18;;;4.78;;
32200;SDS011;18701;45.588;5.288;2023-05-02T08:45:36;8.68;;;5.32;;
32200;SDS011;18701;45.588;5.288;2023-05-02T08:48:08;10.05;;;6.00;;
32200;SDS011;18701;45.588;5.288;2023-05-02T08:50:36;8.40;;;5.40;;
32200;SDS011;18701;45.588;5.288;2023-05-02T08:53:09;6.18;;;4.35;;
32200;SDS011;18701;45.588;5.288;2023-05-02T08:55:38;7.35;;;4.60;;
32200;SDS011;18701;45.588;5.288;2023-05-02T08:58:05;8.48;;;4.50;;
32200;SDS011;18701;45.588;5.288;2023-05-02T09:00:38;8.85;;;5.00;;
32200;SDS011;18701;45.588;5.288;2023-05-02T09:03:05;8.13;;;4.50;;
32200;SDS011;18701;45.588;5.288;2023-05-02T09:05:40;5.95;;;3.95;;
32200;SDS011;18701;45.588;5.288;2023-05-02T09:08:06;5.53;;;4.30;;
32200;SDS011;18701;45.588;5.288;2023-05-02T09:10:35;9.05;;;4.55;;
32200;SDS011;18701;45.588;5.288;2023-05-02T09:16:08;8.07;;;4.90;;
32200;SDS011;18701;45.588;5.288;2023-05-02T09:18:48;7.65;;;4.50;;
32200;SDS011;18701;45.588;5.288;2023-05-02T09:21:19;5.28;;;3.80;;
32200;SDS011;18701;45.588;5.288;2023-05-02T09:23:50;10.00;;;4.38;;
32200;SDS011;18701;45.588;5.288;2023-05-02T09:26:22;7.47;;;4.93;;
32200;SDS011;18701;45.588;5.288;2023-05-02T09:28:58;7.60;;;4.75;;
32200;SDS011;18701;45.588;5.288;2023-05-02T09:31:29;10.43;;;4.50;;
32200;SDS011;18701;45.588;5.288;2023-05-02T09:34:11;9.93;;;5.82;;
32200;SDS011;18701;45.588;5.288;2023-05-02T09:36:56;6.40;;;4.25;;
32200;SDS011;18701;45.588;5.288;2023-05-02T09:39:25;5.35;;;4.60;;
32200;SDS011;18701;45.588;5.288;2023-05-02T09:41:53;9.77;;;4.63;;
32200;SDS011;18701;45.588;5.288;2023-05-02T09:44:20;6.97;;;5.40;;
32200;SDS011;18701;45.588;5.288;2023-05-02T09:46:48;10.95;;;5.03;;
32200;SDS011;18701;45.588;5.288;2023-05-02T09:49:15;8.25;;;4.57;;
32200;SDS011;18701;45.588;5.288;2023-05-02T09:51:44;12.15;;;4.88;;
32200;SDS011;18701;45.588;5.288;2023-05-02T09:54:13;11.68;;;4.53;;
32200;SDS011;18701;45.588;5.288;2023-05-02T09:56:57;10.38;;;5.50;;
32200;SDS011;18701;45.588;5.288;2023-05-02T09:59:23;12.98;;;5.53;;
32200;SDS011;18701;45.588;5.288;2023-05-02T10:01:55;6.72;;;4.85;;
32200;SDS011;18701;45.588;5.288;2023-05-02T10:04:22;6.60;;;4.43;;
32200;SDS011;18701;45.588;5.288;2023-05-02T10:06:50;6.43;;;5.50;;
32200;SDS011;18701;45.588;5.288;2023-05-02T10:09:16;8.32;;;5.05;;
32200;SDS011;18701;45.588;5.288;2023-05-02T10:11:44;13.63;;;6.28;;
32200;SDS011;18701;45.588;5.288;2023-05-02T10:14:11;13.15;;;6.88;;
32200;SDS011;18701;45.588;5.288;2023-05-02T10:16:38;27.20;;;11.40;;
32200;SDS011;18701;45.588;5.288;2023-05-02T10:19:15;13.38;;;7.25;;
32200;SDS011;18701;45.588;5.288;2023-05-02T10:21:47;8.55;;;5.43;;
32200;SDS011;18701;45.588;5.288;2023-05-02T10:24:14;12.23;;;4.60;;
32200;SDS011;18701;45.588;5.288;2023-05-02T10:26:40;8.63;;;4.70;;
32200;SDS011;18701;45.588;5.288;2023-05-02T10:29:07;10.23;;;4.60;;
32200;SDS011;18701;45.588;5.288;2023-05-02T10:31:34;7.50;;;3.97;;
32200;SDS011;18701;45.588;5.288;2023-05-02T10:34:01;5.45;;;3.67;;
32200;SDS011;18701;45.588;5.288;2023-05-02T10:36:28;6.82;;;4.18;;
32200;SDS011;18701;45.588;5.288;2023-05-02T10:38:57;11.10;;;3.72;;
32200;SDS011;18701;45.588;5.288;2023-05-02T10:41:26;8.63;;;5.15;;
32200;SDS011;18701;45.588;5.288;2023-05-02T10:43:58;10.45;;;4.78;;
32200;SDS011;18701;45.588;5.288;2023-05-02T10:46:35;8.25;;;4.47;;
32200;SDS011;18701;45.588;5.288;2023-05-02T10:51:36;6.30;;;4.65;;
32200;SDS011;18701;45.588;5.288;2023-05-02T11:01:53;11.25;;;4.05;;
32200;SDS011;18701;45.588;5.288;2023-05-02T11:04:19;6.70;;;4.35;;
32200;SDS011;18701;45.588;5.288;2023-05-02T11:11:51;4.70;;;3.45;;
32200;SDS011;18701;45.588;5.288;2023-05-02T11:19:22;5.18;;;3.58;;
32200;SDS011;18701;45.588;5.288;2023-05-02T11:21:48;7.15;;;4.20;;
32200;SDS011;18701;45.588;5.288;2023-05-02T11:29:56;4.78;;;3.20;;
32200;SDS011;18701;45.588;5.288;2023-05-02T11:32:22;5.15;;;3.45;;
32200;SDS011;18701;45.588;5.288;2023-05-02T11:34:49;5.75;;;3.35;;
32200;SDS011;18701;45.588;5.288;2023-05-02T11:37:17;4.55;;;3.40;;
32200;SDS011;18701;45.588;5.288;2023-05-02T11:39:44;11.68;;;3.53;;
32200;SDS011;18701;45.588;5.288;2023-05-02T11:42:28;11.82;;;3.35;;
32200;SDS011;18701;45.588;5.288;2023-05-02T11:44:55;9.23;;;3.80;;
32200;SDS011;18701;45.588;5.288;2023-05-02T11:47:22;18.17;;;5.20;;
32200;SDS011;18701;45.588;5.288;2023-05-02T11:49:49;12.90;;;3.92;;
32200;SDS011;18701;45.588;5.288;2023-05-02T11:52:15;8.73;;;3.90;;
32200;SDS011;18701;45.588;5.288;2023-05-02T11:54:40;12.68;;;4.25;;
32200;SDS011;18701;45.588;5.288;2023-05-02T11:57:06;4.47;;;3.17;;
32200;SDS011;18701;45.588;5.288;2023-05-02T11:59:47;7.00;;;4.22;;
32200;SDS011;18701;45.588;5.288;2023-05-02T12:02:17;7.97;;;3.95;;
32200;SDS011;18701;45.588;5.288;2023-05-02T12:04:43;6.18;;;4.60;;
32200;SDS011;18701;45.588;5.288;2023-05-02T12:07:08;6.20;;;3.47;;
32200;SDS011;18701;45.588;5.288;2023-05-02T12:09:34;6.88;;;3.47;;
32200;SDS011;18701;45.588;5.288;2023-05-02T12:12:00;6.22;;;3.63;;
32200;SDS011;18701;45.588;5.288;2023-05-02T12:14:30;3.53;;;3.22;;
32200;SDS011;18701;45.588;5.288;2023-05-02T12:17:01;6.13;;;3.08;;
32200;SDS011;18701;45.588;5.288;2023-05-02T12:19:27;6.93;;;3.53;;
32200;SDS011;18701;45.588;5.288;2023-05-02T12:21:53;5.50;;;3.95;;
32200;SDS011;18701;45.588;5.288;2023-05-02T12:24:19;4.75;;;3.70;;
32200;SDS011;18701;45.588;5.288;2023-05-02T12:26:45;11.73;;;3.92;;
32200;SDS011;18701;45.588;5.288;2023-05-02T12:29:11;10.50;;;3.53;;
32200;SDS011;18701;45.588;5.288;2023-05-02T12:31:36;4.60;;;3.15;;
32200;SDS011;18701;45.588;5.288;2023-05-02T12:34:02;4.50;;;3.58;;
32200;SDS011;18701;45.588;5.288;2023-05-02T12:36:28;5.80;;;3.08;;
32200;SDS011;18701;45.588;5.288;2023-05-02T12:38:54;4.85;;;2.70;;
32200;SDS011;18701;45.588;5.288;2023-05-02T12:44:30;7.22;;;2.30;;
32200;SDS011;18701;45.588;5.288;2023-05-02T12:47:00;6.15;;;3.47;;
32200;SDS011;18701;45.588;5.288;2023-05-02T12:49:26;11.23;;;3.92;;
32200;SDS011;18701;45.588;5.288;2023-05-02T12:51:52;5.63;;;3.05;;
32200;SDS011;18701;45.588;5.288;2023-05-02T12:54:21;7.30;;;3.17;;
32200;SDS011;18701;45.588;5.288;2023-05-02T12:56:47;6.82;;;3.00;;
32200;SDS011;18701;45.588;5.288;2023-05-02T12:59:28;5.38;;;3.92;;
32200;SDS011;18701;45.588;5.288;2023-05-02T13:01:58;3.85;;;3.28;;
32200;SDS011;18701;45.588;5.288;2023-05-02T13:04:36;5.55;;;3.10;;
32200;SDS011;18701;45.588;5.288;2023-05-02T13:07:04;4.80;;;3.35;;
32200;SDS011;18701;45.588;5.288;2023-05-02T13:09:30;10.80;;;3.97;;
32200;SDS011;18701;45.588;5.288;2023-05-02T13:11:56;5.18;;;3.20;;
32200;SDS011;18701;45.588;5.288;2023-05-02T13:14:23;7.57;;;2.97;;
32200;SDS011;18701;45.588;5.288;2023-05-02T13:16:49;6.30;;;2.45;;
32200;SDS011;18701;45.588;5.288;2023-05-02T13:19:17;5.07;;;2.83;;
32200;SDS011;18701;45.588;5.288;2023-05-02T13:21:43;7.90;;;3.63;;
32200;SDS011;18701;45.588;5.288;2023-05-02T13:24:09;9.15;;;3.70;;
32200;SDS011;18701;45.588;5.288;2023-05-02T13:26:34;6.15;;;3.30;;
32200;SDS011;18701;45.588;5.288;2023-05-02T13:29:00;6.35;;;3.22;;
32200;SDS011;18701;45.588;5.288;2023-05-02T13:31:26;6.93;;;3.17;;
32200;SDS011;18701;45.588;5.288;2023-05-02T13:33:51;6.60;;;3.10;;
32200;SDS011;18701;45.588;5.288;2023-05-02T13:36:17;7.32;;;2.92;;
32200;SDS011;18701;45.588;5.288;2023-05-02T13:38:43;7.53;;;3.20;;
32200;SDS011;18701;45.588;5.288;2023-05-02T13:41:08;8.65;;;3.33;;
32200;SDS011;18701;45.588;5.288;2023-05-02T13:43:34;8.35;;;2.80;;
32200;SDS011;18701;45.588;5.288;2023-05-02T13:45:59;6.55;;;3.00;;
32200;SDS011;18701;45.588;5.288;2023-05-02T13:48:28;3.63;;;2.22;;
32200;SDS011;18701;45.588;5.288;2023-05-02T13:50:54;5.72;;;3.38;;
32200;SDS011;18701;45.588;5.288;2023-05-02T13:53:21;6.10;;;3.08;;
32200;SDS011;18701;45.588;5.288;2023-05-02T13:55:47;8.05;;;2.95;;
32200;SDS011;18701;45.588;5.288;2023-05-02T13:58:12;5.05;;;3.17;;
32200;SDS011;18701;45.588;5.288;2023-05-02T14:00:38;6.22;;;3.60;;
32200;SDS011;18701;45.588;5.288;2023-05-02T14:03:04;7.53;;;3.08;;
32200;SDS011;18701;45.588;5.288;2023-05-02T14:05:29;3.08;;;2.45;;
32200;SDS011;18701;45.588;5.288;2023-05-02T14:07:55;5.50;;;2.03;;
32200;SDS011;18701;45.588;5.288;2023-05-02T14:10:20;6.95;;;3.55;;
32200;SDS011;18701;45.588;5.288;2023-05-02T14:12:46;4.28;;;3.00;;
32200;SDS011;18701;45.588;5.288;2023-05-02T14:15:12;4.57;;;2.90;;
32200;SDS011;18701;45.588;5.288;2023-05-02T14:17:37;4.82;;;2.25;;
32200;SDS011;18701;45.588;5.288;2023-05-02T14:20:03;3.47;;;2.50;;
32200;SDS011;18701;45.588;5.288;2023-05-02T14:22:29;7.22;;;1.95;;
32200;SDS011;18701;45.588;5.288;2023-05-02T14:24:55;4.22;;;2.63;;
32200;SDS011;18701;45.588;5.288;2023-05-02T14:27:21;7.75;;;2.83;;
32200;SDS011;18701;45.588;5.288;2023-05-02T14:29:47;4.00;;;2.10;;
32200;SDS011;18701;45.588;5.288;2023-05-02T14:32:12;2.45;;;1.88;;
32200;SDS011;18701;45.588;5.288;2023-05-02T14:34:38;3.15;;;1.60;;
32200;SDS011;18701;45.588;5.288;2023-05-02T14:37:04;4.82;;;1.83;;
32200;SDS011;18701;45.588;5.288;2023-05-02T14:39:30;6.80;;;1.83;;
32200;SDS011;18701;45.588;5.288;2023-05-02T14:41:56;5.75;;;1.25;;
32200;SDS011;18701;45.588;5.288;2023-05-02T14:44:22;2.88;;;1.38;;
32200;SDS011;18701;45.588;5.288;2023-05-02T14:46:47;5.07;;;1.77;;
32200;SDS011;18701;45.588;5.288;2023-05-02T14:49:13;4.32;;;1.88;;
32200;SDS011;18701;45.588;5.288;2023-05-02T14:51:39;8.32;;;2.10;;
32200;SDS011;18701;45.588;5.288;2023-05-02T14:54:04;7.47;;;1.70;;
32200;SDS011;18701;45.588;5.288;2023-05-02T14:56:31;5.57;;;1.92;;
32200;SDS011;18701;45.588;5.288;2023-05-02T14:58:57;3.08;;;1.30;;
32200;SDS011;18701;45.588;5.288;2023-05-02T15:01:23;6.80;;;1.63;;
32200;SDS011;18701;45.588;5.288;2023-05-02T15:03:48;2.15;;;1.77;;
32200;SDS011;18701;45.588;5.288;2023-05-02T15:06:15;2.72;;;2.15;;
32200;SDS011;18701;45.588;5.288;2023-05-02T15:08:41;5.22;;;1.90;;
32200;SDS011;18701;45.588;5.288;2023-05-02T15:11:09;5.65;;;2.10;;
32200;SDS011;18701;45.588;5.288;2023-05-02T15:13:35;3.88;;;1.90;;
32200;SDS011;18701;45.588;5.288;2023-05-02T15:16:01;4.88;;;1.50;;
32200;SDS011;18701;45.588;5.288;2023-05-02T15:18:27;2.78;;;1.55;;
32200;SDS011;18701;45.588;5.288;2023-05-02T15:20:53;2.90;;;1.25;;
32200;SDS011;18701;45.588;5.288;2023-05-02T15:23:18;8.32;;;1.60;;
32200;SDS011;18701;45.588;5.288;2023-05-02T15:25:44;2.75;;;0.73;;
32200;SDS011;18701;45.588;5.288;2023-05-02T15:28:09;1.77;;;0.82;;